sensor_id;sensor_type;location;lat;lon;timestamp;temperature;humidity
33988;DHT22;37428;53.580;-1.666;2023-06-22T00:03:07;17.40;71.20
33988;DHT22;37428;53.580;-1.666;2023-06-22T00:06:11;17.40;71.00
33988;DHT22;37428;53.580;-1.666;2023-06-22T00:09:13;17.30;70.90
33988;DHT22;37428;53.580;-1.666;2023-06-22T00:12:17;17.30;70.80
33988;DHT22;37428;53.580;-1.666;2023-06-22T00:15:19;17.30;71.00
33988;DHT22;37428;53.580;-1.666;2023-06-22T00:18:23;17.20;71.20
33988;DHT22;37428;53.580;-1.666;2023-06-22T00:21:34;17.20;71.30
33988;DHT22;37428;53.580;-1.666;2023-06-22T00:24:38;17.20;71.60
33988;DHT22;37428;53.580;-1.666;2023-06-22T00:27:54;17.10;72.00
33988;DHT22;37428;53.580;-1.666;2023-06-22T00:30:56;17.10;71.80
33988;DHT22;37428;53.580;-1.666;2023-06-22T00:33:59;17.00;71.50
33988;DHT22;37428;53.580;-1.666;2023-06-22T00:37:04;17.00;71.60
33988;DHT22;37428;53.580;-1.666;2023-06-22T00:40:11;17.00;71.50
33988;DHT22;37428;53.580;-1.666;2023-06-22T00:43:16;17.00;71.50
33988;DHT22;37428;53.580;-1.666;2023-06-22T00:46:19;17.00;71.70
33988;DHT22;37428;53.580;-1.666;2023-06-22T00:49:23;16.90;71.50
33988;DHT22;37428;53.580;-1.666;2023-06-22T00:52:25;17.00;71.70
33988;DHT22;37428;53.580;-1.666;2023-06-22T00:55:30;16.90;71.80
33988;DHT22;37428;53.580;-1.666;2023-06-22T00:58:32;16.90;72.20
33988;DHT22;37428;53.580;-1.666;2023-06-22T01:01:34;16.90;72.00
33988;DHT22;37428;53.580;-1.666;2023-06-22T01:04:46;16.90;72.00
33988;DHT22;37428;53.580;-1.666;2023-06-22T01:08:18;16.80;72.60
33988;DHT22;37428;53.580;-1.666;2023-06-22T01:11:26;16.80;72.90
33988;DHT22;37428;53.580;-1.666;2023-06-22T01:14:35;16.70;72.90
33988;DHT22;37428;53.580;-1.666;2023-06-22T01:17:40;16.70;73.10
33988;DHT22;37428;53.580;-1.666;2023-06-22T01:20:48;16.60;73.40
33988;DHT22;37428;53.580;-1.666;2023-06-22T01:23:58;16.60;73.40
33988;DHT22;37428;53.580;-1.666;2023-06-22T01:30:30;16.60;73.90
33988;DHT22;37428;53.580;-1.666;2023-06-22T01:33:36;16.60;73.70
33988;DHT22;37428;53.580;-1.666;2023-06-22T01:36:39;16.70;73.80
33988;DHT22;37428;53.580;-1.666;2023-06-22T01:39:44;16.70;74.10
33988;DHT22;37428;53.580;-1.666;2023-06-22T01:42:47;16.70;74.00
33988;DHT22;37428;53.580;-1.666;2023-06-22T01:45:51;16.70;73.90
33988;DHT22;37428;53.580;-1.666;2023-06-22T01:48:54;16.70;74.20
33988;DHT22;37428;53.580;-1.666;2023-06-22T01:51:56;16.70;74.40
33988;DHT22;37428;53.580;-1.666;2023-06-22T01:55:01;16.60;74.60
33988;DHT22;37428;53.580;-1.666;2023-06-22T01:58:05;16.60;74.70
33988;DHT22;37428;53.580;-1.666;2023-06-22T02:01:10;16.60;74.80
33988;DHT22;37428;53.580;-1.666;2023-06-22T02:04:27;16.60;74.80
33988;DHT22;37428;53.580;-1.666;2023-06-22T02:07:32;16.60;74.70
33988;DHT22;37428;53.580;-1.666;2023-06-22T02:10:37;16.60;74.80
33988;DHT22;37428;53.580;-1.666;2023-06-22T02:13:41;16.60;74.80
33988;DHT22;37428;53.580;-1.666;2023-06-22T02:16:45;16.60;74.90
33988;DHT22;37428;53.580;-1.666;2023-06-22T02:19:47;16.60;74.90
33988;DHT22;37428;53.580;-1.666;2023-06-22T02:22:50;16.60;74.90
33988;DHT22;37428;53.580;-1.666;2023-06-22T02:25:52;16.50;75.00
33988;DHT22;37428;53.580;-1.666;2023-06-22T02:28:54;16.60;75.10
33988;DHT22;37428;53.580;-1.666;2023-06-22T02:31:58;16.60;75.40
33988;DHT22;37428;53.580;-1.666;2023-06-22T02:35:00;16.50;75.40
33988;DHT22;37428;53.580;-1.666;2023-06-22T02:38:04;16.50;75.90
33988;DHT22;37428;53.580;-1.666;2023-06-22T02:41:07;16.60;76.00
33988;DHT22;37428;53.580;-1.666;2023-06-22T02:44:19;16.60;76.10
33988;DHT22;37428;53.580;-1.666;2023-06-22T02:47:23;16.60;76.30
33988;DHT22;37428;53.580;-1.666;2023-06-22T02:50:26;16.60;76.50
33988;DHT22;37428;53.580;-1.666;2023-06-22T02:53:28;16.60;76.30
33988;DHT22;37428;53.580;-1.666;2023-06-22T02:56:31;16.50;76.60
33988;DHT22;37428;53.580;-1.666;2023-06-22T02:59:35;16.50;76.60
33988;DHT22;37428;53.580;-1.666;2023-06-22T03:02:45;16.50;76.70
33988;DHT22;37428;53.580;-1.666;2023-06-22T03:05:49;16.60;76.50
33988;DHT22;37428;53.580;-1.666;2023-06-22T03:09:01;16.60;76.70
33988;DHT22;37428;53.580;-1.666;2023-06-22T03:12:08;16.60;76.70
33988;DHT22;37428;53.580;-1.666;2023-06-22T03:15:12;16.60;76.70
33988;DHT22;37428;53.580;-1.666;2023-06-22T03:18:16;16.60;76.90
33988;DHT22;37428;53.580;-1.666;2023-06-22T03:21:18;16.60;76.60
33988;DHT22;37428;53.580;-1.666;2023-06-22T03:24:20;16.50;76.40
33988;DHT22;37428;53.580;-1.666;2023-06-22T03:27:22;16.50;76.50
33988;DHT22;37428;53.580;-1.666;2023-06-22T03:30:24;16.50;76.70
33988;DHT22;37428;53.580;-1.666;2023-06-22T03:33:27;16.40;76.40
33988;DHT22;37428;53.580;-1.666;2023-06-22T03:36:30;16.40;76.60
33988;DHT22;37428;53.580;-1.666;2023-06-22T03:39:32;16.40;76.70
33988;DHT22;37428;53.580;-1.666;2023-06-22T03:42:35;16.30;77.20
33988;DHT22;37428;53.580;-1.666;2023-06-22T03:45:37;16.30;77.10
33988;DHT22;37428;53.580;-1.666;2023-06-22T03:48:42;16.30;77.20
33988;DHT22;37428;53.580;-1.666;2023-06-22T03:51:44;16.20;77.40
33988;DHT22;37428;53.580;-1.666;2023-06-22T03:54:46;16.20;77.40
33988;DHT22;37428;53.580;-1.666;2023-06-22T03:57:50;16.10;77.90
33988;DHT22;37428;53.580;-1.666;2023-06-22T04:00:57;16.10;78.00
33988;DHT22;37428;53.580;-1.666;2023-06-22T04:04:02;16.10;77.90
33988;DHT22;37428;53.580;-1.666;2023-06-22T04:07:04;16.10;78.20
33988;DHT22;37428;53.580;-1.666;2023-06-22T04:10:07;16.10;78.00
33988;DHT22;37428;53.580;-1.666;2023-06-22T04:13:09;16.10;78.20
33988;DHT22;37428;53.580;-1.666;2023-06-22T04:16:12;16.10;78.60
33988;DHT22;37428;53.580;-1.666;2023-06-22T04:19:15;16.20;78.40
33988;DHT22;37428;53.580;-1.666;2023-06-22T04:22:18;16.20;77.80
33988;DHT22;37428;53.580;-1.666;2023-06-22T04:25:20;16.20;78.40
33988;DHT22;37428;53.580;-1.666;2023-06-22T04:28:22;16.20;78.30
33988;DHT22;37428;53.580;-1.666;2023-06-22T04:31:26;16.30;78.00
33988;DHT22;37428;53.580;-1.666;2023-06-22T04:34:36;16.30;78.00
33988;DHT22;37428;53.580;-1.666;2023-06-22T04:37:38;16.30;77.60
33988;DHT22;37428;53.580;-1.666;2023-06-22T04:40:40;16.20;77.90
33988;DHT22;37428;53.580;-1.666;2023-06-22T04:43:45;16.20;77.80
33988;DHT22;37428;53.580;-1.666;2023-06-22T04:47:02;16.20;77.70
33988;DHT22;37428;53.580;-1.666;2023-06-22T04:50:10;16.20;77.70
33988;DHT22;37428;53.580;-1.666;2023-06-22T04:53:12;16.20;77.30
33988;DHT22;37428;53.580;-1.666;2023-06-22T04:56:16;16.20;77.50
33988;DHT22;37428;53.580;-1.666;2023-06-22T04:59:20;16.20;77.50
33988;DHT22;37428;53.580;-1.666;2023-06-22T05:02:22;16.30;77.30
33988;DHT22;37428;53.580;-1.666;2023-06-22T05:05:35;16.30;77.10
33988;DHT22;37428;53.580;-1.666;2023-06-22T05:08:37;16.30;76.50
33988;DHT22;37428;53.580;-1.666;2023-06-22T05:11:39;16.40;77.00
33988;DHT22;37428;53.580;-1.666;2023-06-22T05:14:43;16.40;76.30
33988;DHT22;37428;53.580;-1.666;2023-06-22T05:17:51;16.50;76.30
33988;DHT22;37428;53.580;-1.666;2023-06-22T05:20:57;16.50;76.60
33988;DHT22;37428;53.580;-1.666;2023-06-22T05:24:03;16.60;76.40
33988;DHT22;37428;53.580;-1.666;2023-06-22T05:27:06;16.60;76.40
33988;DHT22;37428;53.580;-1.666;2023-06-22T05:30:09;16.60;76.20
33988;DHT22;37428;53.580;-1.666;2023-06-22T05:33:12;16.70;76.20
33988;DHT22;37428;53.580;-1.666;2023-06-22T05:36:15;16.80;76.30
33988;DHT22;37428;53.580;-1.666;2023-06-22T05:39:18;16.90;76.10
33988;DHT22;37428;53.580;-1.666;2023-06-22T05:42:20;16.90;76.50
33988;DHT22;37428;53.580;-1.666;2023-06-22T05:45:22;17.00;76.40
33988;DHT22;37428;53.580;-1.666;2023-06-22T05:48:24;17.10;76.10
33988;DHT22;37428;53.580;-1.666;2023-06-22T05:51:35;17.20;75.40
33988;DHT22;37428;53.580;-1.666;2023-06-22T05:54:40;17.40;75.60
33988;DHT22;37428;53.580;-1.666;2023-06-22T05:57:45;17.50;75.40
33988;DHT22;37428;53.580;-1.666;2023-06-22T06:00:48;17.70;75.00
33988;DHT22;37428;53.580;-1.666;2023-06-22T06:03:50;17.90;75.00
33988;DHT22;37428;53.580;-1.666;2023-06-22T06:06:57;18.00;74.40
33988;DHT22;37428;53.580;-1.666;2023-06-22T06:10:13;18.10;74.40
33988;DHT22;37428;53.580;-1.666;2023-06-22T06:13:16;18.10;74.30
33988;DHT22;37428;53.580;-1.666;2023-06-22T06:16:20;18.00;74.60
33988;DHT22;37428;53.580;-1.666;2023-06-22T06:19:29;18.00;74.60
33988;DHT22;37428;53.580;-1.666;2023-06-22T06:22:33;18.10;74.40
33988;DHT22;37428;53.580;-1.666;2023-06-22T06:25:41;18.10;74.20
33988;DHT22;37428;53.580;-1.666;2023-06-22T06:28:44;18.40;74.60
33988;DHT22;37428;53.580;-1.666;2023-06-22T06:31:47;18.60;73.50
33988;DHT22;37428;53.580;-1.666;2023-06-22T06:34:51;18.60;72.60
33988;DHT22;37428;53.580;-1.666;2023-06-22T06:37:55;18.60;73.30
33988;DHT22;37428;53.580;-1.666;2023-06-22T06:40:58;18.70;73.70
33988;DHT22;37428;53.580;-1.666;2023-06-22T06:44:00;18.90;72.90
33988;DHT22;37428;53.580;-1.666;2023-06-22T06:47:03;19.30;72.00
33988;DHT22;37428;53.580;-1.666;2023-06-22T06:50:06;19.50;71.90
33988;DHT22;37428;53.580;-1.666;2023-06-22T06:53:10;19.50;71.00
33988;DHT22;37428;53.580;-1.666;2023-06-22T06:56:15;19.60;70.80
33988;DHT22;37428;53.580;-1.666;2023-06-22T06:59:19;19.80;70.10
33988;DHT22;37428;53.580;-1.666;2023-06-22T07:02:22;20.20;68.70
33988;DHT22;37428;53.580;-1.666;2023-06-22T07:05:25;20.30;68.00
33988;DHT22;37428;53.580;-1.666;2023-06-22T07:08:30;20.40;68.10
33988;DHT22;37428;53.580;-1.666;2023-06-22T07:11:33;20.40;68.00
33988;DHT22;37428;53.580;-1.666;2023-06-22T07:14:41;20.40;66.80
33988;DHT22;37428;53.580;-1.666;2023-06-22T07:17:45;20.40;66.20
33988;DHT22;37428;53.580;-1.666;2023-06-22T07:20:50;20.30;67.20
33988;DHT22;37428;53.580;-1.666;2023-06-22T07:23:54;20.80;66.50
33988;DHT22;37428;53.580;-1.666;2023-06-22T07:26:57;21.30;65.30
33988;DHT22;37428;53.580;-1.666;2023-06-22T07:29:59;21.70;65.10
33988;DHT22;37428;53.580;-1.666;2023-06-22T07:33:01;22.00;61.00
33988;DHT22;37428;53.580;-1.666;2023-06-22T07:36:04;22.00;60.80
33988;DHT22;37428;53.580;-1.666;2023-06-22T07:39:11;22.10;60.20
33988;DHT22;37428;53.580;-1.666;2023-06-22T07:42:15;22.10;60.30
33988;DHT22;37428;53.580;-1.666;2023-06-22T07:45:20;22.00;61.00
33988;DHT22;37428;53.580;-1.666;2023-06-22T07:48:22;21.80;61.30
33988;DHT22;37428;53.580;-1.666;2023-06-22T07:51:24;21.70;61.40
33988;DHT22;37428;53.580;-1.666;2023-06-22T07:54:28;21.60;61.70
33988;DHT22;37428;53.580;-1.666;2023-06-22T07:57:30;21.40;60.30
33988;DHT22;37428;53.580;-1.666;2023-06-22T08:00:34;21.20;61.60
33988;DHT22;37428;53.580;-1.666;2023-06-22T08:03:36;21.30;62.70
33988;DHT22;37428;53.580;-1.666;2023-06-22T08:06:38;21.20;63.20
33988;DHT22;37428;53.580;-1.666;2023-06-22T08:09:46;21.20;63.60
33988;DHT22;37428;53.580;-1.666;2023-06-22T08:12:48;21.20;63.80
33988;DHT22;37428;53.580;-1.666;2023-06-22T08:15:52;21.30;63.50
33988;DHT22;37428;53.580;-1.666;2023-06-22T08:18:56;21.40;63.70
33988;DHT22;37428;53.580;-1.666;2023-06-22T08:21:58;21.50;63.00
33988;DHT22;37428;53.580;-1.666;2023-06-22T08:25:02;21.50;62.60
33988;DHT22;37428;53.580;-1.666;2023-06-22T08:28:05;21.60;63.70
33988;DHT22;37428;53.580;-1.666;2023-06-22T08:31:07;21.80;62.80
33988;DHT22;37428;53.580;-1.666;2023-06-22T08:34:14;21.90;61.70
33988;DHT22;37428;53.580;-1.666;2023-06-22T08:37:16;22.40;59.90
33988;DHT22;37428;53.580;-1.666;2023-06-22T08:40:20;22.60;59.00
33988;DHT22;37428;53.580;-1.666;2023-06-22T08:43:23;22.90;58.30
33988;DHT22;37428;53.580;-1.666;2023-06-22T08:46:25;22.80;58.60
33988;DHT22;37428;53.580;-1.666;2023-06-22T08:49:30;22.80;58.70
33988;DHT22;37428;53.580;-1.666;2023-06-22T08:52:32;22.90;58.30
33988;DHT22;37428;53.580;-1.666;2023-06-22T08:55:36;23.10;58.00
33988;DHT22;37428;53.580;-1.666;2023-06-22T08:58:40;23.40;57.40
33988;DHT22;37428;53.580;-1.666;2023-06-22T09:01:44;23.80;56.30
33988;DHT22;37428;53.580;-1.666;2023-06-22T09:04:50;24.50;53.50
33988;DHT22;37428;53.580;-1.666;2023-06-22T09:10:59;25.00;53.20
33988;DHT22;37428;53.580;-1.666;2023-06-22T09:14:03;24.80;52.50
33988;DHT22;37428;53.580;-1.666;2023-06-22T09:17:55;25.20;52.50
33988;DHT22;37428;53.580;-1.666;2023-06-22T09:20:58;25.70;50.20
33988;DHT22;37428;53.580;-1.666;2023-06-22T09:24:29;26.00;50.10
33988;DHT22;37428;53.580;-1.666;2023-06-22T09:27:45;26.40;48.70
33988;DHT22;37428;53.580;-1.666;2023-06-22T09:30:49;26.60;48.20
33988;DHT22;37428;53.580;-1.666;2023-06-22T09:34:00;26.80;47.50
33988;DHT22;37428;53.580;-1.666;2023-06-22T09:37:02;27.00;48.10
33988;DHT22;37428;53.580;-1.666;2023-06-22T09:40:07;27.40;48.10
33988;DHT22;37428;53.580;-1.666;2023-06-22T09:43:31;27.60;46.50
33988;DHT22;37428;53.580;-1.666;2023-06-22T09:46:37;27.60;47.00
33988;DHT22;37428;53.580;-1.666;2023-06-22T09:50:10;27.30;46.90
33988;DHT22;37428;53.580;-1.666;2023-06-22T09:53:12;27.40;47.10
33988;DHT22;37428;53.580;-1.666;2023-06-22T09:56:14;27.20;46.70
33988;DHT22;37428;53.580;-1.666;2023-06-22T09:59:35;27.10;49.10
33988;DHT22;37428;53.580;-1.666;2023-06-22T10:02:39;27.50;47.30
33988;DHT22;37428;53.580;-1.666;2023-06-22T10:05:42;27.70;46.10
33988;DHT22;37428;53.580;-1.666;2023-06-22T10:08:46;27.70;46.30
33988;DHT22;37428;53.580;-1.666;2023-06-22T10:12:20;27.70;45.90
33988;DHT22;37428;53.580;-1.666;2023-06-22T10:15:25;27.90;45.50
33988;DHT22;37428;53.580;-1.666;2023-06-22T10:18:34;27.80;46.40
33988;DHT22;37428;53.580;-1.666;2023-06-22T10:21:38;27.40;46.40
33988;DHT22;37428;53.580;-1.666;2023-06-22T10:24:43;26.90;46.40
33988;DHT22;37428;53.580;-1.666;2023-06-22T10:27:57;26.50;47.80
33988;DHT22;37428;53.580;-1.666;2023-06-22T10:31:02;26.10;50.60
33988;DHT22;37428;53.580;-1.666;2023-06-22T10:34:06;25.70;50.90
33988;DHT22;37428;53.580;-1.666;2023-06-22T10:37:10;25.30;49.70
33988;DHT22;37428;53.580;-1.666;2023-06-22T10:40:15;25.00;51.30
33988;DHT22;37428;53.580;-1.666;2023-06-22T10:43:19;24.90;52.20
33988;DHT22;37428;53.580;-1.666;2023-06-22T10:46:24;25.10;53.50
33988;DHT22;37428;53.580;-1.666;2023-06-22T10:49:34;25.00;52.00
33988;DHT22;37428;53.580;-1.666;2023-06-22T10:52:51;24.80;52.40
33988;DHT22;37428;53.580;-1.666;2023-06-22T10:55:53;24.90;52.00
33988;DHT22;37428;53.580;-1.666;2023-06-22T10:58:55;24.90;51.70
33988;DHT22;37428;53.580;-1.666;2023-06-22T11:02:01;25.30;51.60
33988;DHT22;37428;53.580;-1.666;2023-06-22T11:05:03;25.40;51.30
33988;DHT22;37428;53.580;-1.666;2023-06-22T11:08:06;25.40;51.90
33988;DHT22;37428;53.580;-1.666;2023-06-22T11:11:08;25.30;51.10
33988;DHT22;37428;53.580;-1.666;2023-06-22T11:14:11;25.20;50.40
33988;DHT22;37428;53.580;-1.666;2023-06-22T11:17:17;24.90;50.00
33988;DHT22;37428;53.580;-1.666;2023-06-22T11:20:21;24.90;51.10
33988;DHT22;37428;53.580;-1.666;2023-06-22T11:23:23;24.90;49.60
33988;DHT22;37428;53.580;-1.666;2023-06-22T11:26:26;25.10;47.90
33988;DHT22;37428;53.580;-1.666;2023-06-22T11:29:28;25.90;48.30
33988;DHT22;37428;53.580;-1.666;2023-06-22T11:32:35;26.00;48.00
33988;DHT22;37428;53.580;-1.666;2023-06-22T11:35:51;26.00;46.40
33988;DHT22;37428;53.580;-1.666;2023-06-22T11:38:53;25.90;48.20
33988;DHT22;37428;53.580;-1.666;2023-06-22T11:41:58;25.60;48.90
33988;DHT22;37428;53.580;-1.666;2023-06-22T11:45:04;25.60;49.70
33988;DHT22;37428;53.580;-1.666;2023-06-22T11:48:18;25.70;49.80
33988;DHT22;37428;53.580;-1.666;2023-06-22T11:51:49;25.60;49.70
33988;DHT22;37428;53.580;-1.666;2023-06-22T11:54:51;25.50;50.20
33988;DHT22;37428;53.580;-1.666;2023-06-22T11:57:55;25.40;48.80
33988;DHT22;37428;53.580;-1.666;2023-06-22T12:00:59;25.10;47.30
33988;DHT22;37428;53.580;-1.666;2023-06-22T12:04:02;25.00;49.00
33988;DHT22;37428;53.580;-1.666;2023-06-22T12:07:06;24.90;48.10
33988;DHT22;37428;53.580;-1.666;2023-06-22T12:10:09;24.70;49.00
33988;DHT22;37428;53.580;-1.666;2023-06-22T12:13:21;24.30;48.60
33988;DHT22;37428;53.580;-1.666;2023-06-22T12:16:23;24.20;49.80
33988;DHT22;37428;53.580;-1.666;2023-06-22T12:19:28;24.00;49.90
33988;DHT22;37428;53.580;-1.666;2023-06-22T12:22:30;23.80;49.90
33988;DHT22;37428;53.580;-1.666;2023-06-22T12:25:32;23.90;50.80
33988;DHT22;37428;53.580;-1.666;2023-06-22T12:28:34;23.80;51.20
33988;DHT22;37428;53.580;-1.666;2023-06-22T12:31:38;23.70;52.20
33988;DHT22;37428;53.580;-1.666;2023-06-22T12:34:49;23.60;52.90
33988;DHT22;37428;53.580;-1.666;2023-06-22T12:38:32;23.60;53.50
33988;DHT22;37428;53.580;-1.666;2023-06-22T12:41:40;23.60;55.60
33988;DHT22;37428;53.580;-1.666;2023-06-22T12:44:43;23.50;56.00
33988;DHT22;37428;53.580;-1.666;2023-06-22T12:47:46;23.40;59.10
33988;DHT22;37428;53.580;-1.666;2023-06-22T12:50:53;23.30;59.30
33988;DHT22;37428;53.580;-1.666;2023-06-22T12:54:01;23.40;58.00
33988;DHT22;37428;53.580;-1.666;2023-06-22T12:57:09;23.50;57.50
33988;DHT22;37428;53.580;-1.666;2023-06-22T13:00:15;24.40;54.60
33988;DHT22;37428;53.580;-1.666;2023-06-22T13:03:34;24.80;51.80
33988;DHT22;37428;53.580;-1.666;2023-06-22T13:06:38;25.20;51.40
33988;DHT22;37428;53.580;-1.666;2023-06-22T13:09:42;25.10;49.90
33988;DHT22;37428;53.580;-1.666;2023-06-22T13:12:47;25.30;50.00
33988;DHT22;37428;53.580;-1.666;2023-06-22T13:15:50;25.70;48.70
33988;DHT22;37428;53.580;-1.666;2023-06-22T13:18:53;26.00;46.40
33988;DHT22;37428;53.580;-1.666;2023-06-22T13:22:00;26.50;46.20
33988;DHT22;37428;53.580;-1.666;2023-06-22T13:25:14;27.00;46.70
33988;DHT22;37428;53.580;-1.666;2023-06-22T13:28:19;27.30;46.00
33988;DHT22;37428;53.580;-1.666;2023-06-22T13:31:22;27.10;46.20
33988;DHT22;37428;53.580;-1.666;2023-06-22T13:34:23;27.00;45.90
33988;DHT22;37428;53.580;-1.666;2023-06-22T13:37:27;26.60;48.50
33988;DHT22;37428;53.580;-1.666;2023-06-22T13:40:35;26.20;48.30
33988;DHT22;37428;53.580;-1.666;2023-06-22T13:43:38;25.90;49.20
33988;DHT22;37428;53.580;-1.666;2023-06-22T13:46:41;25.60;50.30
33988;DHT22;37428;53.580;-1.666;2023-06-22T13:49:43;25.40;51.80
33988;DHT22;37428;53.580;-1.666;2023-06-22T13:52:53;25.10;51.50
33988;DHT22;37428;53.580;-1.666;2023-06-22T13:55:59;25.00;52.00
33988;DHT22;37428;53.580;-1.666;2023-06-22T13:59:15;24.80;51.70
33988;DHT22;37428;53.580;-1.666;2023-06-22T14:02:17;24.70;52.40
33988;DHT22;37428;53.580;-1.666;2023-06-22T14:05:21;24.70;52.30
33988;DHT22;37428;53.580;-1.666;2023-06-22T14:08:24;24.50;53.10
33988;DHT22;37428;53.580;-1.666;2023-06-22T14:11:27;24.80;52.90
33988;DHT22;37428;53.580;-1.666;2023-06-22T14:14:31;25.00;51.50
33988;DHT22;37428;53.580;-1.666;2023-06-22T14:17:35;24.80;52.00
33988;DHT22;37428;53.580;-1.666;2023-06-22T14:20:42;24.90;51.10
33988;DHT22;37428;53.580;-1.666;2023-06-22T14:23:50;25.50;50.70
33988;DHT22;37428;53.580;-1.666;2023-06-22T14:26:54;25.80;49.60
33988;DHT22;37428;53.580;-1.666;2023-06-22T14:29:56;25.90;48.30
33988;DHT22;37428;53.580;-1.666;2023-06-22T14:33:00;25.80;48.30
33988;DHT22;37428;53.580;-1.666;2023-06-22T14:36:02;25.80;47.70
33988;DHT22;37428;53.580;-1.666;2023-06-22T14:39:05;25.60;47.80
33988;DHT22;37428;53.580;-1.666;2023-06-22T14:42:09;25.40;49.60
33988;DHT22;37428;53.580;-1.666;2023-06-22T14:45:12;25.30;49.10
33988;DHT22;37428;53.580;-1.666;2023-06-22T14:48:14;25.30;48.70
33988;DHT22;37428;53.580;-1.666;2023-06-22T14:51:18;25.30;49.90
33988;DHT22;37428;53.580;-1.666;2023-06-22T14:54:25;25.30;49.40
33988;DHT22;37428;53.580;-1.666;2023-06-22T14:57:48;25.30;49.30
33988;DHT22;37428;53.580;-1.666;2023-06-22T15:00:50;25.20;48.10
33988;DHT22;37428;53.580;-1.666;2023-06-22T15:03:53;25.20;49.40
33988;DHT22;37428;53.580;-1.666;2023-06-22T15:06:55;25.20;50.90
33988;DHT22;37428;53.580;-1.666;2023-06-22T15:09:59;25.20;49.00
33988;DHT22;37428;53.580;-1.666;2023-06-22T15:13:02;25.30;49.80
33988;DHT22;37428;53.580;-1.666;2023-06-22T15:16:04;25.30;48.70
33988;DHT22;37428;53.580;-1.666;2023-06-22T15:19:06;25.60;50.70
33988;DHT22;37428;53.580;-1.666;2023-06-22T15:22:10;26.10;48.50
33988;DHT22;37428;53.580;-1.666;2023-06-22T15:25:13;26.50;44.80
33988;DHT22;37428;53.580;-1.666;2023-06-22T15:28:18;27.20;44.70
33988;DHT22;37428;53.580;-1.666;2023-06-22T15:31:21;27.70;42.80
33988;DHT22;37428;53.580;-1.666;2023-06-22T15:34:25;27.40;42.90
33988;DHT22;37428;53.580;-1.666;2023-06-22T15:37:28;26.90;44.30
33988;DHT22;37428;53.580;-1.666;2023-06-22T15:40:32;26.90;45.70
33988;DHT22;37428;53.580;-1.666;2023-06-22T15:43:34;26.90;45.40
33988;DHT22;37428;53.580;-1.666;2023-06-22T15:46:36;27.30;43.30
33988;DHT22;37428;53.580;-1.666;2023-06-22T15:49:38;27.50;43.00
33988;DHT22;37428;53.580;-1.666;2023-06-22T15:52:42;27.40;42.10
33988;DHT22;37428;53.580;-1.666;2023-06-22T15:55:49;27.10;43.40
33988;DHT22;37428;53.580;-1.666;2023-06-22T15:58:55;27.10;43.80
33988;DHT22;37428;53.580;-1.666;2023-06-22T16:02:05;27.50;43.20
33988;DHT22;37428;53.580;-1.666;2023-06-22T16:05:07;27.40;43.00
33988;DHT22;37428;53.580;-1.666;2023-06-22T16:08:26;27.10;43.60
33988;DHT22;37428;53.580;-1.666;2023-06-22T16:11:32;26.80;44.60
33988;DHT22;37428;53.580;-1.666;2023-06-22T16:14:36;26.90;44.40
33988;DHT22;37428;53.580;-1.666;2023-06-22T16:17:40;26.80;45.10
33988;DHT22;37428;53.580;-1.666;2023-06-22T16:20:42;26.80;44.50
33988;DHT22;37428;53.580;-1.666;2023-06-22T16:23:46;26.60;44.60
33988;DHT22;37428;53.580;-1.666;2023-06-22T16:26:54;26.40;45.20
33988;DHT22;37428;53.580;-1.666;2023-06-22T16:29:57;26.10;45.50
33988;DHT22;37428;53.580;-1.666;2023-06-22T16:32:59;26.10;45.70
33988;DHT22;37428;53.580;-1.666;2023-06-22T16:36:02;26.10;46.90
33988;DHT22;37428;53.580;-1.666;2023-06-22T16:39:20;25.90;47.00
33988;DHT22;37428;53.580;-1.666;2023-06-22T16:42:24;25.80;47.00
33988;DHT22;37428;53.580;-1.666;2023-06-22T16:45:31;25.60;47.40
33988;DHT22;37428;53.580;-1.666;2023-06-22T16:48:36;25.50;47.20
33988;DHT22;37428;53.580;-1.666;2023-06-22T16:51:38;25.70;46.80
33988;DHT22;37428;53.580;-1.666;2023-06-22T16:54:41;25.90;47.70
33988;DHT22;37428;53.580;-1.666;2023-06-22T16:57:53;25.90;46.70
33988;DHT22;37428;53.580;-1.666;2023-06-22T17:00:57;25.80;46.80
33988;DHT22;37428;53.580;-1.666;2023-06-22T17:04:03;25.80;47.00
33988;DHT22;37428;53.580;-1.666;2023-06-22T17:07:11;25.70;46.50
33988;DHT22;37428;53.580;-1.666;2023-06-22T17:10:34;25.80;46.50
33988;DHT22;37428;53.580;-1.666;2023-06-22T17:13:38;26.00;46.40
33988;DHT22;37428;53.580;-1.666;2023-06-22T17:16:42;25.90;46.40
33988;DHT22;37428;53.580;-1.666;2023-06-22T17:19:46;25.80;47.00
33988;DHT22;37428;53.580;-1.666;2023-06-22T17:22:57;25.60;48.90
33988;DHT22;37428;53.580;-1.666;2023-06-22T17:26:01;25.50;47.40
33988;DHT22;37428;53.580;-1.666;2023-06-22T17:29:09;25.40;47.90
33988;DHT22;37428;53.580;-1.666;2023-06-22T17:32:13;25.40;48.10
33988;DHT22;37428;53.580;-1.666;2023-06-22T17:35:27;25.30;48.00
33988;DHT22;37428;53.580;-1.666;2023-06-22T17:38:38;25.30;48.70
33988;DHT22;37428;53.580;-1.666;2023-06-22T17:41:44;25.30;50.10
33988;DHT22;37428;53.580;-1.666;2023-06-22T17:45:00;25.40;48.90
33988;DHT22;37428;53.580;-1.666;2023-06-22T17:48:22;25.20;47.20
33988;DHT22;37428;53.580;-1.666;2023-06-22T17:51:25;25.10;47.70
33988;DHT22;37428;53.580;-1.666;2023-06-22T17:54:43;25.00;48.90
33988;DHT22;37428;53.580;-1.666;2023-06-22T17:57:53;24.90;48.70
33988;DHT22;37428;53.580;-1.666;2023-06-22T18:01:00;24.80;48.20
33988;DHT22;37428;53.580;-1.666;2023-06-22T18:04:06;24.70;48.20
33988;DHT22;37428;53.580;-1.666;2023-06-22T18:07:16;24.60;48.40
33988;DHT22;37428;53.580;-1.666;2023-06-22T18:10:37;24.50;48.80
33988;DHT22;37428;53.580;-1.666;2023-06-22T18:14:20;24.50;48.80
33988;DHT22;37428;53.580;-1.666;2023-06-22T18:17:17;24.50;49.40
33988;DHT22;37428;53.580;-1.666;2023-06-22T18:20:41;24.50;49.60
33988;DHT22;37428;53.580;-1.666;2023-06-22T18:23:46;24.40;50.30
33988;DHT22;37428;53.580;-1.666;2023-06-22T18:27:12;24.30;48.50
33988;DHT22;37428;53.580;-1.666;2023-06-22T18:30:16;24.30;49.30
33988;DHT22;37428;53.580;-1.666;2023-06-22T18:33:19;24.20;49.90
33988;DHT22;37428;53.580;-1.666;2023-06-22T18:36:25;24.10;50.10
33988;DHT22;37428;53.580;-1.666;2023-06-22T18:43:20;24.10;50.00
33988;DHT22;37428;53.580;-1.666;2023-06-22T18:46:49;24.00;49.50
33988;DHT22;37428;53.580;-1.666;2023-06-22T18:50:04;23.90;48.90
33988;DHT22;37428;53.580;-1.666;2023-06-22T18:53:11;23.80;49.60
33988;DHT22;37428;53.580;-1.666;2023-06-22T18:56:14;23.70;49.40
33988;DHT22;37428;53.580;-1.666;2023-06-22T18:59:58;23.50;49.70
33988;DHT22;37428;53.580;-1.666;2023-06-22T19:03:07;23.30;50.10
33988;DHT22;37428;53.580;-1.666;2023-06-22T19:06:59;23.20;50.40
33988;DHT22;37428;53.580;-1.666;2023-06-22T19:10:24;23.10;52.50
33988;DHT22;37428;53.580;-1.666;2023-06-22T19:13:59;22.90;51.60
33988;DHT22;37428;53.580;-1.666;2023-06-22T19:17:05;22.80;52.40
33988;DHT22;37428;53.580;-1.666;2023-06-22T19:20:52;22.70;52.30
33988;DHT22;37428;53.580;-1.666;2023-06-22T19:24:46;22.60;52.70
33988;DHT22;37428;53.580;-1.666;2023-06-22T19:29:26;22.40;52.60
33988;DHT22;37428;53.580;-1.666;2023-06-22T19:31:21;22.30;53.70